createdAt,value
2019-02-05T00:01:57.209Z,0.56
2019-02-05T00:07:02.768Z,0.58
2019-02-05T00:12:08.208Z,0.63
2019-02-05T00:17:13.407Z,0.64
2019-02-05T00:22:18.832Z,0.64
2019-02-05T00:27:24.203Z,0.70
2019-02-05T00:32:29.531Z,0.68
2019-02-05T00:37:34.973Z,0.66
2019-02-05T00:42:40.322Z,0.69
2019-02-05T00:47:45.684Z,0.74
2019-02-05T00:52:51.250Z,0.74
2019-02-05T00:57:56.943Z,0.69
2019-02-05T01:03:02.166Z,0.73
2019-02-05T01:08:07.676Z,0.77
2019-02-05T01:13:13.167Z,0.69
2019-02-05T01:18:18.589Z,0.66
2019-02-05T01:23:25.298Z,0.63
2019-02-05T01:28:31.080Z,0.67
2019-02-05T01:33:36.893Z,0.75
2019-02-05T01:38:42.611Z,0.73
2019-02-05T01:43:47.684Z,0.72
2019-02-05T01:48:52.769Z,0.72
2019-02-05T01:53:58.293Z,0.75
2019-02-05T01:59:05.931Z,0.75
2019-02-05T02:04:11.342Z,0.75
2019-02-05T02:09:16.791Z,0.77
2019-02-05T02:14:21.888Z,0.86
2019-02-05T02:19:27.038Z,0.89
2019-02-05T02:24:32.858Z,0.88
2019-02-05T02:29:38.012Z,0.93
2019-02-05T02:34:43.759Z,0.92
2019-02-05T02:39:49.055Z,0.99
2019-02-05T02:44:54.144Z,1.07
2019-02-05T02:49:59.350Z,1.03
2019-02-05T02:55:06.054Z,1.00
2019-02-05T03:00:14.414Z,1.00
2019-02-05T03:05:21.805Z,0.96
2019-02-05T03:10:31.157Z,0.98
2019-02-05T03:15:36.391Z,1.00
2019-02-05T03:20:41.628Z,0.90
2019-02-05T03:25:47.789Z,0.89
2019-02-05T03:30:53.246Z,0.89
2019-02-05T03:35:59.121Z,1.00
2019-02-05T03:41:05.039Z,0.98
2019-02-05T03:46:11.047Z,1.04
2019-02-05T03:51:19.202Z,1.00
2019-02-05T03:56:43.720Z,1.08
2019-02-05T04:01:58.348Z,0.99
2019-02-05T04:07:09.890Z,1.00
2019-02-05T04:12:36.854Z,1.13
2019-02-05T04:17:59.820Z,1.18
2019-02-05T04:23:28.052Z,1.11
2019-02-05T04:28:45.488Z,1.06
2019-02-05T04:33:56.688Z,1.13
2019-02-05T04:39:13.262Z,1.16
2019-02-05T04:44:35.994Z,1.13
2019-02-05T04:49:47.140Z,1.13
2019-02-05T04:55:19.624Z,1.13
2019-02-05T05:00:30.849Z,1.12
2019-02-05T05:06:02.095Z,1.15
2019-02-05T05:11:07.650Z,1.20
2019-02-05T05:16:12.881Z,1.16
2019-02-05T05:21:19.791Z,1.15
2019-02-05T05:26:25.335Z,1.12
2019-02-05T05:31:30.629Z,1.11
2019-02-05T05:36:37.005Z,1.12
2019-02-05T05:41:42.179Z,1.26
2019-02-05T05:46:47.418Z,1.24
2019-02-05T05:51:52.634Z,1.19
2019-02-05T05:56:57.700Z,1.13
2019-02-05T06:02:02.876Z,1.08
2019-02-05T06:07:08.571Z,1.15
2019-02-05T06:12:13.794Z,1.18
2019-02-05T06:17:18.978Z,1.15
2019-02-05T06:22:24.316Z,1.09
2019-02-05T06:27:29.464Z,1.22
2019-02-05T06:32:35.056Z,1.15
2019-02-05T06:37:40.672Z,1.21
2019-02-05T06:42:46.300Z,1.21
2019-02-05T06:47:51.493Z,1.28
2019-02-05T06:52:56.803Z,1.39
2019-02-05T06:58:02.757Z,1.31
2019-02-05T07:03:07.978Z,1.33
2019-02-05T07:08:13.619Z,1.31
2019-02-05T07:13:18.799Z,1.38
2019-02-05T07:18:23.873Z,1.31
2019-02-05T07:23:29.380Z,1.35
2019-02-05T07:28:34.714Z,1.30
2019-02-05T07:33:40.159Z,1.42
2019-02-05T07:38:46.480Z,1.43
2019-02-05T07:43:51.568Z,1.44
2019-02-05T07:48:56.917Z,1.46
2019-02-05T07:54:02.283Z,1.57
2019-02-05T07:59:10.308Z,1.49
2019-02-05T08:04:15.137Z,1.53
2019-02-05T08:09:20.383Z,1.56
2019-02-05T08:14:25.565Z,1.63
2019-02-05T08:19:30.816Z,1.63
2019-02-05T08:24:35.919Z,1.77
2019-02-05T08:29:41.215Z,1.95
2019-02-05T08:34:46.366Z,1.89
2019-02-05T08:39:52.041Z,1.97
2019-02-05T08:44:57.377Z,1.91
2019-02-05T08:50:02.623Z,1.85
2019-02-05T08:55:14.375Z,2.03
2019-02-05T09:00:22.474Z,2.05
2019-02-05T09:05:27.783Z,2.00
2019-02-05T09:10:35.008Z,2.06
2019-02-05T09:15:41.390Z,2.04
2019-02-05T09:20:46.628Z,2.16
2019-02-05T09:25:51.834Z,2.03
2019-02-05T09:30:57.089Z,2.05
2019-02-05T09:36:02.653Z,2.16
2019-02-05T09:41:07.885Z,2.33
2019-02-05T09:46:14.378Z,2.27
2019-02-05T09:51:19.556Z,2.33
2019-02-05T09:56:24.681Z,2.34
2019-02-05T10:01:30.532Z,2.49
2019-02-05T10:06:35.839Z,2.45
2019-02-05T10:11:40.988Z,2.50
2019-02-05T10:16:46.473Z,2.59
2019-02-05T10:21:51.757Z,2.74
2019-02-05T10:26:57.207Z,2.78
2019-02-05T10:32:02.363Z,2.85
2019-02-05T10:37:07.566Z,2.97
2019-02-05T10:42:13.114Z,3.04
2019-02-05T10:47:18.424Z,3.07
2019-02-05T10:52:23.854Z,3.14
2019-02-05T10:57:29.159Z,3.21
2019-02-05T11:02:34.703Z,3.17
2019-02-05T11:07:39.873Z,3.13
2019-02-05T11:12:45.893Z,3.04
2019-02-05T11:17:51.388Z,3.22
2019-02-05T11:22:56.926Z,3.14
2019-02-05T11:28:02.166Z,3.11
2019-02-05T11:33:07.353Z,3.08
2019-02-05T11:38:13.201Z,3.16
2019-02-05T11:43:18.567Z,3.20
2019-02-05T11:48:23.918Z,3.20
2019-02-05T11:53:29.022Z,3.27
2019-02-05T11:58:34.551Z,3.29
2019-02-05T12:03:40.181Z,3.31
2019-02-05T12:08:45.346Z,3.41
2019-02-05T12:13:50.750Z,3.39
2019-02-05T12:18:55.803Z,3.41
2019-02-05T12:24:01.033Z,3.37
2019-02-05T12:29:06.895Z,3.32
2019-02-05T12:34:12.312Z,3.36
2019-02-05T12:39:18.380Z,3.29
2019-02-05T12:44:23.801Z,3.27
2019-02-05T12:49:29.150Z,3.26
2019-02-05T12:54:35.402Z,3.28
2019-02-05T12:59:40.837Z,3.19
2019-02-05T13:04:46.098Z,3.24
2019-02-05T13:09:51.397Z,3.29
2019-02-05T13:14:57.152Z,3.27
2019-02-05T13:20:02.825Z,3.23
2019-02-05T13:25:16.780Z,3.24
2019-02-05T13:30:24.850Z,3.10
2019-02-05T13:35:31.079Z,3.13
2019-02-05T13:40:36.950Z,2.98
2019-02-05T13:45:42.984Z,3.16
2019-02-05T13:50:49.222Z,3.10
2019-02-05T13:55:54.767Z,3.29
2019-02-05T14:01:00.255Z,3.19
2019-02-05T14:06:05.654Z,3.23
2019-02-05T14:11:11.354Z,3.26
2019-02-05T14:16:17.876Z,3.08
2019-02-05T14:21:23.301Z,3.11
2019-02-05T14:26:29.177Z,3.10
2019-02-05T14:31:34.836Z,2.98
2019-02-05T14:36:40.073Z,2.89
2019-02-05T14:41:45.569Z,2.78
2019-02-05T14:46:50.968Z,2.69
2019-02-05T14:51:57.847Z,2.69
2019-02-05T14:57:06.302Z,2.52
2019-02-05T15:02:10.547Z,2.38
2019-02-05T15:07:16.647Z,2.28
2019-02-05T15:12:22.522Z,2.19
2019-02-05T15:17:28.408Z,2.22
2019-02-05T15:22:33.651Z,2.14
2019-02-05T15:27:39.396Z,2.04
2019-02-05T15:32:58.196Z,2.06
2019-02-05T15:38:03.650Z,1.99
2019-02-05T15:43:09.114Z,2.00
2019-02-05T15:48:16.048Z,2.05
2019-02-05T15:53:21.373Z,2.05
2019-02-05T15:58:26.867Z,2.10
2019-02-05T16:03:32.093Z,2.10
2019-02-05T16:08:37.857Z,2.16
2019-02-05T16:13:43.408Z,2.17
2019-02-05T16:18:48.902Z,2.21
2019-02-05T16:23:54.657Z,2.25
2019-02-05T16:29:00.107Z,2.29
2019-02-05T16:34:05.771Z,2.33
2019-02-05T16:39:11.677Z,2.42
2019-02-05T16:44:17.111Z,2.38
2019-02-05T16:49:22.719Z,2.44
2019-02-05T16:54:28.241Z,2.49
2019-02-05T16:59:33.877Z,2.63
2019-02-05T17:04:39.046Z,2.66
2019-02-05T17:09:44.625Z,2.79
2019-02-05T17:14:49.863Z,2.70
2019-02-05T17:19:55.945Z,2.68
2019-02-05T17:25:01.202Z,2.64
2019-02-05T17:30:12.836Z,2.62
2019-02-05T17:35:18.279Z,2.69
2019-02-05T17:40:27.414Z,2.78
2019-02-05T17:45:37.695Z,2.86
2019-02-05T17:50:43.428Z,2.85
2019-02-05T17:55:48.944Z,2.94
2019-02-05T18:00:55.739Z,2.84
2019-02-05T18:06:02.233Z,2.95
2019-02-05T18:11:10.813Z,3.00
2019-02-05T18:16:16.787Z,3.04
2019-02-05T18:21:22.174Z,3.18
2019-02-05T18:26:27.759Z,3.12
2019-02-05T18:31:33.174Z,3.13
2019-02-05T18:36:38.646Z,3.17
2019-02-05T18:41:44.133Z,3.18
2019-02-05T18:46:49.369Z,3.16
2019-02-05T18:51:54.990Z,3.18
2019-02-05T18:57:00.065Z,3.18
2019-02-05T19:02:05.640Z,3.28
2019-02-05T19:07:11.006Z,3.31
2019-02-05T19:12:16.319Z,3.38
2019-02-05T19:17:21.937Z,3.38
2019-02-05T19:22:27.302Z,3.37
2019-02-05T19:27:34.095Z,3.44
2019-02-05T19:32:39.642Z,3.47
2019-02-05T19:37:45.105Z,3.43
2019-02-05T19:42:51.495Z,3.49
2019-02-05T19:47:57.937Z,3.44
2019-02-05T19:53:03.460Z,3.38
2019-02-05T19:58:09.202Z,3.47
2019-02-05T20:03:14.801Z,3.48
2019-02-05T20:08:20.197Z,3.48
2019-02-05T20:13:25.811Z,3.46
2019-02-05T20:18:31.643Z,3.46
2019-02-05T20:23:37.221Z,3.50
2019-02-05T20:28:42.532Z,3.50
2019-02-05T20:33:50.043Z,3.59
2019-02-05T20:38:54.624Z,3.63
2019-02-05T20:43:59.791Z,3.63
2019-02-05T20:49:05.921Z,3.63
2019-02-05T20:54:11.226Z,3.60
2019-02-05T20:59:16.364Z,3.58
2019-02-05T21:04:21.477Z,3.54
2019-02-05T21:09:27.500Z,3.57
2019-02-05T21:14:32.911Z,3.57
2019-02-05T21:19:38.238Z,3.46
2019-02-05T21:24:43.870Z,3.51
2019-02-05T21:29:49.324Z,3.44
2019-02-05T21:34:54.705Z,3.50
2019-02-05T21:40:02.586Z,3.52
2019-02-05T21:45:09.804Z,3.42
2019-02-05T21:50:19.411Z,3.29
2019-02-05T21:55:28.737Z,3.23
2019-02-05T22:00:36.763Z,3.20
2019-02-05T22:05:42.241Z,3.13
2019-02-05T22:10:48.140Z,3.10
2019-02-05T22:15:53.453Z,3.13
2019-02-05T22:20:58.827Z,3.06
2019-02-05T22:26:05.083Z,3.06
2019-02-05T22:31:10.554Z,3.09
2019-02-05T22:36:16.014Z,3.12
2019-02-05T22:41:21.375Z,3.06
2019-02-05T22:46:26.632Z,3.07
2019-02-05T22:51:31.757Z,3.03
2019-02-05T22:56:39.127Z,3.05
2019-02-05T23:01:46.978Z,3.09
2019-02-05T23:07:01.095Z,3.12
2019-02-05T23:12:09.564Z,3.19
2019-02-05T23:17:15.404Z,3.16
2019-02-05T23:22:21.131Z,3.21
2019-02-05T23:27:26.691Z,3.27
2019-02-05T23:32:31.956Z,3.25
2019-02-05T23:37:37.554Z,3.23
2019-02-05T23:42:43.492Z,3.22
2019-02-05T23:47:49.365Z,3.14
2019-02-05T23:52:54.935Z,3.17
2019-02-05T23:58:00.257Z,3.18
